createdAt,value
2023-01-17T00:02:13.656Z,27.10
2023-01-17T00:07:25.041Z,26.88
2023-01-17T00:12:18.479Z,27.30
2023-01-17T00:17:11.831Z,26.73
2023-01-17T00:22:49.481Z,25.80
2023-01-17T00:27:43.139Z,27.48
2023-01-17T00:32:35.641Z,23.30
2023-01-17T00:37:29.000Z,25.60
2023-01-17T00:47:34.354Z,24.45
2023-01-17T00:52:46.414Z,24.83
2023-01-17T01:04:28.512Z,24.42
2023-01-17T01:09:39.682Z,25.15
2023-01-17T01:14:51.407Z,23.40
2023-01-17T01:20:03.027Z,22.45
2023-01-17T01:25:14.712Z,25.88
2023-01-17T01:30:27.706Z,26.50
2023-01-17T01:35:22.675Z,28.50
2023-01-17T01:40:18.621Z,30.27
2023-01-17T01:45:39.900Z,28.85
2023-01-17T01:50:36.019Z,29.25
2023-01-17T01:55:34.371Z,29.15
2023-01-17T02:00:31.151Z,29.85
2023-01-17T02:05:24.860Z,28.83
2023-01-17T02:10:18.059Z,28.20
2023-01-17T02:15:12.732Z,28.35
2023-01-17T02:20:16.999Z,28.77
2023-01-17T02:25:39.661Z,28.35
2023-01-17T02:30:34.864Z,29.98
2023-01-17T02:35:54.331Z,29.00
2023-01-17T02:40:56.927Z,28.67
2023-01-17T02:45:50.283Z,28.20
2023-01-17T02:50:59.453Z,30.08
2023-01-17T02:56:08.985Z,27.92
2023-01-17T03:01:13.867Z,26.35
2023-01-17T03:06:27.618Z,28.13
2023-01-17T03:11:20.358Z,26.92
2023-01-17T03:16:17.528Z,26.98
2023-01-17T03:21:10.562Z,26.85
2023-01-17T03:26:03.893Z,27.50
2023-01-17T03:30:58.942Z,29.27
2023-01-17T03:35:52.009Z,29.45
2023-01-17T03:40:45.484Z,32.10
2023-01-17T03:45:38.731Z,31.42
2023-01-17T03:50:31.556Z,29.40
2023-01-17T03:55:24.647Z,29.53
2023-01-17T04:00:18.516Z,29.63
2023-01-17T04:05:11.846Z,28.27
2023-01-17T04:10:07.172Z,28.70
2023-01-17T04:15:01.541Z,30.83
2023-01-17T04:19:55.413Z,32.22
2023-01-17T04:24:48.969Z,29.73
2023-01-17T04:29:42.381Z,28.20
2023-01-17T04:39:28.240Z,28.65
2023-01-17T04:44:22.124Z,32.27
2023-01-17T04:54:07.859Z,31.42
2023-01-17T04:59:00.613Z,32.70
2023-01-17T05:03:54.414Z,33.20
2023-01-17T05:08:47.593Z,30.92
2023-01-17T05:13:40.402Z,34.05
2023-01-17T05:18:33.953Z,30.60
2023-01-17T05:23:27.198Z,32.22
2023-01-17T05:28:21.769Z,32.13
2023-01-17T05:33:15.907Z,32.15
2023-01-17T05:38:11.346Z,29.50
2023-01-17T05:43:05.082Z,31.58
2023-01-17T05:47:58.760Z,33.07
2023-01-17T05:52:56.195Z,32.13
2023-01-17T05:57:49.132Z,30.73
2023-01-17T06:02:42.969Z,30.50
2023-01-17T06:07:35.852Z,32.17
2023-01-17T06:12:28.810Z,24.10
2023-01-17T06:17:21.596Z,30.37
2023-01-17T06:22:14.166Z,31.13
2023-01-17T06:27:11.096Z,30.17
2023-01-17T06:32:05.642Z,30.73
2023-01-17T06:36:58.814Z,30.65
2023-01-17T06:41:52.320Z,27.40
2023-01-17T06:46:48.138Z,28.63
2023-01-17T06:51:43.564Z,30.40
2023-01-17T06:56:37.020Z,30.85
2023-01-17T07:01:30.256Z,32.47
2023-01-17T07:06:24.460Z,31.77
2023-01-17T07:11:17.580Z,31.63
2023-01-17T07:16:12.653Z,29.63
2023-01-17T07:21:05.431Z,32.45
2023-01-17T07:25:59.686Z,32.58
2023-01-17T07:30:53.441Z,33.55
2023-01-17T07:35:46.936Z,32.05
2023-01-17T07:45:36.321Z,27.95
2023-01-17T07:50:30.685Z,30.50
2023-01-17T07:55:23.455Z,30.02
2023-01-17T08:00:19.553Z,28.50
2023-01-17T08:05:12.975Z,28.08
2023-01-17T08:10:13.452Z,27.17
2023-01-17T08:15:11.452Z,29.48
2023-01-17T08:20:06.529Z,28.92
2023-01-17T08:25:00.683Z,31.20
2023-01-17T08:29:54.130Z,29.25
2023-01-17T08:34:47.486Z,28.90
2023-01-17T08:39:41.268Z,27.95
2023-01-17T08:44:34.436Z,27.40
2023-01-17T08:49:29.228Z,29.70
2023-01-17T08:54:23.751Z,30.13
2023-01-17T08:59:17.327Z,31.73
2023-01-17T09:04:10.294Z,30.55
2023-01-17T09:09:03.597Z,30.80
2023-01-17T09:13:56.865Z,30.17
2023-01-17T09:18:49.539Z,31.27
2023-01-17T09:23:43.076Z,32.83
2023-01-17T09:28:41.525Z,32.97
2023-01-17T09:33:35.186Z,31.77
2023-01-17T09:38:28.420Z,32.75
2023-01-17T09:43:24.998Z,33.15
2023-01-17T09:48:25.934Z,31.17
2023-01-17T09:53:22.471Z,32.13
2023-01-17T09:58:31.535Z,33.20
2023-01-17T10:03:29.441Z,31.75
2023-01-17T10:08:30.559Z,33.60
2023-01-17T10:13:47.543Z,29.70
2023-01-17T10:19:08.796Z,31.02
2023-01-17T10:24:22.428Z,25.40
2023-01-17T10:29:20.262Z,31.88
2023-01-17T10:34:14.444Z,30.90
2023-01-17T10:39:20.912Z,31.90
2023-01-17T10:44:36.013Z,29.70
2023-01-17T10:49:29.537Z,30.48
2023-01-17T10:59:37.482Z,29.17
2023-01-17T11:04:39.623Z,30.70
2023-01-17T11:09:41.981Z,28.63
2023-01-17T11:14:36.336Z,29.10
2023-01-17T11:19:30.965Z,27.65
2023-01-17T11:24:56.583Z,28.10
2023-01-17T11:30:04.911Z,25.92
2023-01-17T11:35:13.016Z,25.52
2023-01-17T11:40:19.647Z,29.00
2023-01-17T11:45:29.280Z,29.58
2023-01-17T11:50:27.642Z,28.55
2023-01-17T11:55:23.056Z,26.73
2023-01-17T12:00:38.441Z,26.50
2023-01-17T12:05:35.102Z,23.77
2023-01-17T12:10:54.085Z,23.38
2023-01-17T12:16:23.775Z,21.95
2023-01-17T12:21:18.810Z,21.13
2023-01-17T12:26:20.051Z,20.30
2023-01-17T12:31:28.302Z,20.80
2023-01-17T12:36:56.113Z,20.40
2023-01-17T12:41:52.416Z,18.55
2023-01-17T12:46:55.365Z,19.13
2023-01-17T12:51:59.627Z,17.20
2023-01-17T13:01:58.092Z,17.50
2023-01-17T13:11:50.568Z,16.58
2023-01-17T13:17:01.299Z,17.63
2023-01-17T13:21:55.477Z,17.05
2023-01-17T13:26:57.121Z,15.52
2023-01-17T13:31:56.087Z,15.57
2023-01-17T13:37:15.271Z,15.05
2023-01-17T13:42:27.863Z,12.20
2023-01-17T13:47:23.665Z,13.37
2023-01-17T13:52:19.585Z,12.30
2023-01-17T13:57:29.732Z,11.60
2023-01-17T14:02:38.390Z,11.02
2023-01-17T14:07:33.789Z,11.95
2023-01-17T14:12:31.690Z,11.48
2023-01-17T14:17:25.779Z,11.10
2023-01-17T14:22:28.539Z,10.30
2023-01-17T14:27:29.184Z,9.98
2023-01-17T14:32:24.736Z,10.50
2023-01-17T14:37:32.367Z,8.88
2023-01-17T14:42:27.811Z,10.88
2023-01-17T14:47:20.647Z,10.73
2023-01-17T14:52:19.609Z,9.73
2023-01-17T14:57:29.143Z,10.30
2023-01-17T15:02:22.504Z,8.30
2023-01-17T15:07:21.007Z,9.07
2023-01-17T15:12:23.443Z,8.60
2023-01-17T15:17:25.088Z,8.05
2023-01-17T15:22:19.150Z,8.73
2023-01-17T15:27:15.335Z,7.40
2023-01-17T15:32:12.356Z,7.57
2023-01-17T15:37:08.902Z,6.90
2023-01-17T15:42:06.415Z,7.10
2023-01-17T15:46:59.416Z,6.78
2023-01-17T15:52:17.236Z,7.90
2023-01-17T15:57:25.120Z,8.30
2023-01-17T16:02:59.702Z,7.45
2023-01-17T16:08:17.902Z,7.15
2023-01-17T16:13:16.721Z,7.22
2023-01-17T16:18:24.952Z,7.88
2023-01-17T16:23:18.534Z,8.52
2023-01-17T16:33:04.942Z,8.38
2023-01-17T16:37:57.932Z,7.30
2023-01-17T16:42:51.983Z,7.60
2023-01-17T16:47:46.020Z,7.00
2023-01-17T16:52:40.106Z,6.13
2023-01-17T16:57:33.611Z,6.40
2023-01-17T17:02:27.017Z,5.85
2023-01-17T17:07:21.234Z,5.03
2023-01-17T17:12:14.295Z,6.18
2023-01-17T17:17:07.773Z,6.25
2023-01-17T17:22:07.259Z,6.30
2023-01-17T17:26:59.849Z,6.70
2023-01-17T17:31:54.782Z,6.20
2023-01-17T17:36:48.265Z,11.45
2023-01-17T17:41:46.344Z,7.30
2023-01-17T17:46:39.894Z,6.15
2023-01-17T17:51:38.609Z,6.20
2023-01-17T17:56:36.775Z,5.70
2023-01-17T18:01:30.151Z,5.25
2023-01-17T18:06:24.466Z,6.30
2023-01-17T18:11:20.451Z,5.93
2023-01-17T18:16:16.645Z,6.70
2023-01-17T18:21:37.324Z,7.75
2023-01-17T18:26:35.768Z,8.60
2023-01-17T18:31:30.197Z,7.38
2023-01-17T18:36:24.531Z,8.18
2023-01-17T18:41:20.068Z,8.93
2023-01-17T18:46:13.863Z,8.40
2023-01-17T18:51:29.437Z,9.00
2023-01-17T18:56:24.210Z,8.45
2023-01-17T19:01:24.137Z,9.02
2023-01-17T19:06:31.581Z,9.35
2023-01-17T19:11:25.256Z,9.40
2023-01-17T19:16:28.116Z,8.75
2023-01-17T19:21:23.068Z,9.47
2023-01-17T19:26:17.588Z,10.25
2023-01-17T19:31:40.221Z,9.23
2023-01-17T19:36:36.039Z,9.38
2023-01-17T19:41:30.804Z,9.80
2023-01-17T19:46:26.821Z,9.35
2023-01-17T19:51:20.125Z,9.45
2023-01-17T19:56:18.989Z,10.07
2023-01-17T20:01:18.218Z,10.45
2023-01-17T20:06:13.191Z,12.43
2023-01-17T20:11:07.997Z,11.20
2023-01-17T20:16:06.681Z,12.13
2023-01-17T20:21:04.563Z,11.80
2023-01-17T20:26:01.035Z,12.20
2023-01-17T20:30:55.726Z,12.80
2023-01-17T20:35:51.606Z,16.30
2023-01-17T20:40:57.832Z,12.68
2023-01-17T20:45:57.667Z,12.23
2023-01-17T20:50:50.540Z,12.55
2023-01-17T20:55:43.958Z,12.10
2023-01-17T21:00:38.736Z,13.27
2023-01-17T21:05:32.477Z,11.88
2023-01-17T21:10:28.229Z,11.23
2023-01-17T21:15:21.912Z,10.90
2023-01-17T21:20:16.250Z,9.90
2023-01-17T21:25:11.306Z,11.20
2023-01-17T21:30:04.963Z,10.00
2023-01-17T21:34:57.581Z,9.73
2023-01-17T21:39:55.046Z,9.50
2023-01-17T21:44:49.165Z,10.15
2023-01-17T21:49:42.747Z,17.60
2023-01-17T21:54:55.025Z,19.90
2023-01-17T21:59:48.699Z,21.63
2023-01-17T22:04:43.665Z,20.55
2023-01-17T22:09:40.650Z,18.38
2023-01-17T22:14:34.162Z,19.50
2023-01-17T22:19:27.914Z,18.10
2023-01-17T22:24:20.877Z,19.90
2023-01-17T22:29:19.134Z,19.42
2023-01-17T22:34:13.656Z,19.83
2023-01-17T22:39:06.954Z,19.73
2023-01-17T22:44:03.114Z,19.85
2023-01-17T22:48:56.814Z,20.05
2023-01-17T22:53:52.763Z,18.38
2023-01-17T22:58:46.087Z,19.85
2023-01-17T23:08:32.781Z,19.27
2023-01-17T23:13:26.063Z,21.20
2023-01-17T23:18:38.872Z,17.98
2023-01-17T23:23:33.485Z,16.75
2023-01-17T23:28:26.286Z,18.17
2023-01-17T23:33:19.689Z,18.47
2023-01-17T23:38:31.568Z,18.70
2023-01-17T23:43:25.831Z,19.88
2023-01-17T23:48:20.214Z,20.27
2023-01-17T23:53:33.612Z,18.92
2023-01-17T23:58:28.431Z,20.45
